createdAt,value
2023-08-29T00:01:37.882Z,99711.89
2023-08-29T00:03:52.496Z,99695.07
2023-08-29T00:06:06.458Z,99676.05
2023-08-29T00:08:19.123Z,99684.14
2023-08-29T00:10:31.775Z,99707.23
2023-08-29T00:12:44.480Z,99720.58
2023-08-29T00:14:57.543Z,99721.08
2023-08-29T00:17:10.208Z,99719.69
2023-08-29T00:19:22.889Z,99723.69
2023-08-29T00:21:35.663Z,99715.65
2023-08-29T00:23:49.533Z,99723.90
2023-08-29T00:26:02.257Z,99720.14
2023-08-29T00:28:15.057Z,99705.94
2023-08-29T00:30:27.699Z,99703.95
2023-08-29T00:32:40.389Z,99711.88
2023-08-29T00:34:53.136Z,99723.98
2023-08-29T00:37:06.053Z,99731.14
2023-08-29T00:39:18.742Z,99739.78
2023-08-29T00:41:31.956Z,99752.15
2023-08-29T00:43:44.644Z,99757.85
2023-08-29T00:45:57.446Z,99755.69
2023-08-29T00:48:10.851Z,99742.90
2023-08-29T00:50:24.940Z,99727.69
2023-08-29T00:52:37.687Z,99725.38
2023-08-29T00:54:50.427Z,99713.96
2023-08-29T00:57:03.838Z,99704.52
2023-08-29T00:59:17.154Z,99688.20
2023-08-29T01:01:32.030Z,99679.90
2023-08-29T01:03:44.851Z,99686.02
2023-08-29T01:05:57.508Z,99705.36
2023-08-29T01:08:10.355Z,99735.19
2023-08-29T01:10:45.886Z,99734.85
2023-08-29T01:13:23.456Z,99733.14
2023-08-29T01:15:36.862Z,99738.79
2023-08-29T01:17:55.279Z,99733.75
2023-08-29T01:20:10.373Z,99714.98
2023-08-29T01:22:30.494Z,99717.05
2023-08-29T01:25:13.324Z,99718.44
2023-08-29T01:27:27.691Z,99712.91
2023-08-29T01:29:41.336Z,99689.55
2023-08-29T01:31:54.202Z,99669.89
2023-08-29T01:34:07.517Z,99637.92
2023-08-29T01:36:20.155Z,99629.45
2023-08-29T01:38:32.848Z,99635.83
2023-08-29T01:40:46.363Z,99627.46
2023-08-29T01:42:59.054Z,99613.20
2023-08-29T01:45:11.826Z,99600.38
2023-08-29T01:47:24.672Z,99577.69
2023-08-29T01:49:38.178Z,99545.48
2023-08-29T01:51:50.921Z,99510.50
2023-08-29T01:54:03.745Z,99468.06
2023-08-29T01:56:17.790Z,99422.96
2023-08-29T01:58:31.037Z,99385.31
2023-08-29T02:00:43.812Z,99392.75
2023-08-29T02:02:56.587Z,99395.09
2023-08-29T02:05:09.379Z,99379.17
2023-08-29T02:07:22.101Z,99367.54
2023-08-29T02:09:34.779Z,99360.34
2023-08-29T02:11:47.458Z,99355.69
2023-08-29T02:14:00.184Z,99348.21
2023-08-29T02:16:12.831Z,99340.54
2023-08-29T02:18:26.453Z,99334.88
2023-08-29T02:20:39.080Z,99324.98
2023-08-29T02:22:51.701Z,99313.67
2023-08-29T02:25:06.054Z,99304.41
2023-08-29T02:27:18.729Z,99314.98
2023-08-29T02:29:31.636Z,99338.59
2023-08-29T02:31:44.356Z,99351.34
2023-08-29T02:33:56.991Z,99343.88
2023-08-29T02:36:10.053Z,99345.40
2023-08-29T02:38:22.655Z,99345.41
2023-08-29T02:40:35.265Z,99333.95
2023-08-29T02:42:48.260Z,99347.00
2023-08-29T02:45:00.926Z,99352.71
2023-08-29T02:47:13.743Z,99351.73
2023-08-29T02:49:26.393Z,99340.55
2023-08-29T02:51:38.986Z,99340.86
2023-08-29T02:53:51.658Z,99345.02
2023-08-29T02:56:04.388Z,99357.30
2023-08-29T02:58:17.044Z,99353.54
2023-08-29T03:00:29.731Z,99351.84
2023-08-29T03:02:43.351Z,99357.35
2023-08-29T03:04:56.236Z,99362.05
2023-08-29T03:07:09.107Z,99375.89
2023-08-29T03:09:22.301Z,99389.63
2023-08-29T03:11:34.999Z,99387.59
2023-08-29T03:13:47.690Z,99398.19
2023-08-29T03:16:01.015Z,99408.02
2023-08-29T03:18:13.973Z,99413.38
2023-08-29T03:20:26.759Z,99422.23
2023-08-29T03:22:39.710Z,99413.45
2023-08-29T03:24:52.342Z,99395.66
2023-08-29T03:27:05.285Z,99371.91
2023-08-29T03:29:17.983Z,99341.56
2023-08-29T03:31:30.671Z,99330.42
2023-08-29T03:33:45.027Z,99330.52
2023-08-29T03:36:00.802Z,99327.66
2023-08-29T03:38:13.422Z,99320.41
2023-08-29T03:40:26.204Z,99306.91
2023-08-29T03:42:38.862Z,99298.69
2023-08-29T03:44:51.660Z,99300.52
2023-08-29T03:47:04.895Z,99308.71
2023-08-29T03:49:17.580Z,99333.14
2023-08-29T03:51:30.344Z,99339.63
2023-08-29T03:53:43.056Z,99311.02
2023-08-29T03:55:55.742Z,99300.15
2023-08-29T03:58:08.613Z,99308.30
2023-08-29T04:00:21.385Z,99314.98
2023-08-29T04:02:34.028Z,99311.27
2023-08-29T04:04:46.933Z,99285.77
2023-08-29T04:07:00.814Z,99273.02
2023-08-29T04:09:13.432Z,99279.69
2023-08-29T04:11:26.118Z,99293.29
2023-08-29T04:13:38.732Z,99315.14
2023-08-29T04:15:51.406Z,99329.12
2023-08-29T04:18:06.645Z,99343.81
2023-08-29T04:20:19.562Z,99358.35
2023-08-29T04:22:32.166Z,99371.95
2023-08-29T04:24:46.834Z,99377.52
2023-08-29T04:26:59.476Z,99379.66
2023-08-29T04:29:12.249Z,99388.30
2023-08-29T04:31:25.014Z,99381.70
2023-08-29T04:33:37.907Z,99366.23
2023-08-29T04:35:53.066Z,99356.77
2023-08-29T04:38:05.931Z,99355.73
2023-08-29T04:40:19.753Z,99358.00
2023-08-29T04:42:32.394Z,99358.20
2023-08-29T04:44:47.288Z,99369.08
2023-08-29T04:47:01.595Z,99394.49
2023-08-29T04:49:15.015Z,99403.99
2023-08-29T04:51:27.691Z,99410.30
2023-08-29T04:53:40.326Z,99418.28
2023-08-29T04:56:03.648Z,99430.43
2023-08-29T04:58:16.324Z,99455.05
2023-08-29T05:00:30.124Z,99489.41
2023-08-29T05:02:43.695Z,99507.16
2023-08-29T05:04:56.462Z,99503.66
2023-08-29T05:07:09.998Z,99502.91
2023-08-29T05:09:22.778Z,99496.39
2023-08-29T05:11:35.662Z,99477.30
2023-08-29T05:13:48.327Z,99454.19
2023-08-29T05:16:00.948Z,99451.58
2023-08-29T05:18:13.679Z,99459.77
2023-08-29T05:20:26.404Z,99461.90
2023-08-29T05:22:39.121Z,99443.33
2023-08-29T05:24:52.109Z,99419.30
2023-08-29T05:27:05.077Z,99399.44
2023-08-29T05:29:17.675Z,99379.17
2023-08-29T05:31:30.913Z,99367.33
2023-08-29T05:33:43.693Z,99364.29
2023-08-29T05:35:56.755Z,99347.73
2023-08-29T05:38:10.273Z,99332.48
2023-08-29T05:40:22.903Z,99326.10
2023-08-29T05:42:35.565Z,99314.13
2023-08-29T05:44:48.197Z,99301.66
2023-08-29T05:47:00.824Z,99299.50
2023-08-29T05:49:13.484Z,99298.75
2023-08-29T05:51:29.852Z,99293.80
2023-08-29T05:53:42.442Z,99284.41
2023-08-29T05:55:55.058Z,99260.70
2023-08-29T05:58:08.016Z,99255.58
2023-08-29T06:00:20.983Z,99270.47
2023-08-29T06:02:34.081Z,99288.23
2023-08-29T06:04:47.530Z,99293.90
2023-08-29T06:07:00.244Z,99308.27
2023-08-29T06:09:13.530Z,99325.36
2023-08-29T06:11:27.864Z,99334.80
2023-08-29T06:13:40.504Z,99358.74
2023-08-29T06:15:53.134Z,99375.11
2023-08-29T06:18:06.264Z,99369.10
2023-08-29T06:20:19.177Z,99376.18
2023-08-29T06:22:31.791Z,99376.83
2023-08-29T06:24:44.559Z,99383.75
2023-08-29T06:26:57.203Z,99394.58
2023-08-29T06:29:09.892Z,99405.41
2023-08-29T06:31:22.629Z,99411.39
2023-08-29T06:33:36.484Z,99414.45
2023-08-29T06:35:49.181Z,99413.83
2023-08-29T06:38:02.170Z,99411.70
2023-08-29T06:40:14.744Z,99410.27
2023-08-29T06:42:27.625Z,99412.04
2023-08-29T06:44:40.281Z,99408.88
2023-08-29T06:46:52.868Z,99395.29
2023-08-29T06:49:07.174Z,99399.94
2023-08-29T06:51:19.792Z,99399.38
2023-08-29T06:53:32.407Z,99396.10
2023-08-29T06:55:47.993Z,99396.45
2023-08-29T06:58:00.612Z,99403.98
2023-08-29T07:00:14.243Z,99404.98
2023-08-29T07:02:27.070Z,99403.33
2023-08-29T07:04:39.746Z,99397.66
2023-08-29T07:06:52.362Z,99391.98
2023-08-29T07:09:05.320Z,99386.61
2023-08-29T07:11:17.985Z,99378.98
2023-08-29T07:13:30.677Z,99381.70
2023-08-29T07:15:43.267Z,99380.43
2023-08-29T07:17:56.019Z,99387.38
2023-08-29T07:20:12.421Z,99400.86
2023-08-29T07:22:25.110Z,99411.17
2023-08-29T07:24:40.668Z,99408.27
2023-08-29T07:26:53.277Z,99397.02
2023-08-29T07:29:05.862Z,99393.48
2023-08-29T07:31:19.866Z,99388.23
2023-08-29T07:33:32.503Z,99384.49
2023-08-29T07:35:47.075Z,99377.29
2023-08-29T07:37:59.720Z,99385.36
2023-08-29T07:40:12.507Z,99389.82
2023-08-29T07:42:25.152Z,99404.70
2023-08-29T07:44:37.884Z,99410.77
2023-08-29T07:47:07.841Z,99407.59
2023-08-29T07:49:23.282Z,99407.09
2023-08-29T07:51:36.920Z,99417.95
2023-08-29T07:53:49.559Z,99424.12
2023-08-29T07:56:02.205Z,99419.41
2023-08-29T07:58:14.796Z,99419.84
2023-08-29T08:00:29.476Z,99419.63
2023-08-29T08:02:42.821Z,99422.64
2023-08-29T08:04:56.630Z,99423.22
2023-08-29T08:07:09.877Z,99421.45
2023-08-29T08:09:22.445Z,99427.60
2023-08-29T08:11:35.109Z,99422.61
2023-08-29T08:13:47.778Z,99420.36
2023-08-29T08:16:01.623Z,99426.15
2023-08-29T08:18:15.421Z,99433.23
2023-08-29T08:20:28.102Z,99428.05
2023-08-29T08:22:42.242Z,99436.13
2023-08-29T08:24:54.870Z,99433.29
2023-08-29T08:27:08.501Z,99431.92
2023-08-29T08:29:21.144Z,99430.73
2023-08-29T08:31:33.848Z,99433.83
2023-08-29T08:33:46.684Z,99435.13
2023-08-29T08:35:59.367Z,99426.15
2023-08-29T08:38:12.814Z,99423.45
2023-08-29T08:40:25.987Z,99418.15
2023-08-29T08:42:41.142Z,99421.23
2023-08-29T08:44:54.914Z,99426.00
2023-08-29T08:47:08.033Z,99427.63
2023-08-29T08:49:20.907Z,99423.77
2023-08-29T08:51:37.568Z,99423.71
2023-08-29T08:53:52.860Z,99428.89
2023-08-29T08:56:05.514Z,99424.09
2023-08-29T08:58:19.646Z,99423.99
2023-08-29T09:00:33.006Z,99424.79
2023-08-29T09:02:46.204Z,99426.84
2023-08-29T09:04:58.877Z,99424.45
2023-08-29T09:07:11.479Z,99423.72
2023-08-29T09:09:24.689Z,99421.66
2023-08-29T09:11:42.961Z,99415.52
2023-08-29T09:13:55.617Z,99409.72
2023-08-29T09:16:08.726Z,99404.38
2023-08-29T09:18:25.880Z,99399.82
2023-08-29T09:20:38.459Z,99401.01
2023-08-29T09:22:51.086Z,99397.31
2023-08-29T09:25:07.090Z,99396.86
2023-08-29T09:27:19.774Z,99399.69
2023-08-29T09:29:32.402Z,99404.66
2023-08-29T09:31:47.976Z,99410.88
2023-08-29T09:34:00.739Z,99415.30
2023-08-29T09:36:14.231Z,99416.61
2023-08-29T09:38:30.053Z,99417.45
2023-08-29T09:40:50.441Z,99413.44
2023-08-29T09:43:05.516Z,99409.30
2023-08-29T09:45:18.146Z,99400.55
2023-08-29T09:47:30.712Z,99404.14
2023-08-29T09:49:47.040Z,99414.39
2023-08-29T09:52:02.358Z,99419.86
2023-08-29T09:54:19.170Z,99422.40
2023-08-29T09:56:34.732Z,99416.66
2023-08-29T09:58:50.289Z,99416.37
2023-08-29T10:01:06.005Z,99417.27
2023-08-29T10:03:19.781Z,99418.52
2023-08-29T10:05:37.399Z,99416.18
2023-08-29T10:07:54.155Z,99420.11
2023-08-29T10:10:14.469Z,99424.67
2023-08-29T10:12:29.260Z,99424.23
2023-08-29T10:14:44.228Z,99422.67
2023-08-29T10:16:59.989Z,99415.65
2023-08-29T10:19:14.329Z,99418.27
2023-08-29T10:21:29.164Z,99413.48
2023-08-29T10:23:43.126Z,99412.77
2023-08-29T10:25:56.396Z,99418.17
2023-08-29T10:28:11.375Z,99417.74
2023-08-29T10:30:26.277Z,99415.48
2023-08-29T10:32:41.045Z,99427.83
2023-08-29T10:34:53.810Z,99433.69
2023-08-29T10:37:06.596Z,99436.20
2023-08-29T10:39:20.619Z,99430.27
2023-08-29T10:41:47.543Z,99417.83
2023-08-29T10:44:38.166Z,99410.98
2023-08-29T10:46:54.509Z,99409.63
2023-08-29T10:49:11.453Z,99416.73
2023-08-29T10:51:26.228Z,99423.34
2023-08-29T10:53:50.054Z,99431.94
2023-08-29T10:56:05.239Z,99436.51
2023-08-29T10:58:40.215Z,99438.95
2023-08-29T11:00:54.977Z,99432.79
2023-08-29T11:03:07.726Z,99420.55
2023-08-29T11:05:20.896Z,99422.74
2023-08-29T11:07:33.923Z,99423.80
2023-08-29T11:09:46.699Z,99422.80
2023-08-29T11:12:08.150Z,99429.91
2023-08-29T11:14:53.460Z,99438.78
2023-08-29T11:17:14.177Z,99423.73
2023-08-29T11:19:27.204Z,99407.42
2023-08-29T11:21:41.250Z,99411.46
2023-08-29T11:24:09.683Z,99413.91
2023-08-29T11:26:29.865Z,99424.04
2023-08-29T11:28:46.242Z,99432.66
2023-08-29T11:30:59.858Z,99433.23
2023-08-29T11:33:13.397Z,99433.84
2023-08-29T11:35:28.658Z,99437.40
2023-08-29T11:37:41.450Z,99443.61
2023-08-29T11:39:55.351Z,99444.37
2023-08-29T11:42:35.689Z,99445.42
2023-08-29T11:45:19.498Z,99450.05
2023-08-29T11:47:17.816Z,99454.33
2023-08-29T11:49:31.120Z,99451.39
2023-08-29T11:51:44.528Z,99449.38
2023-08-29T11:53:57.195Z,99446.94
2023-08-29T11:56:12.983Z,99455.06
2023-08-29T11:58:32.589Z,99455.65
2023-08-29T12:00:45.420Z,99454.36
2023-08-29T12:02:58.172Z,99455.72
2023-08-29T12:05:14.295Z,99457.42
2023-08-29T12:07:33.386Z,99458.54
2023-08-29T12:09:47.370Z,99455.58
2023-08-29T12:11:59.961Z,99457.11
2023-08-29T12:14:12.650Z,99459.62
2023-08-29T12:16:25.379Z,99455.38
2023-08-29T12:18:38.085Z,99454.27
2023-08-29T12:20:50.772Z,99455.92
2023-08-29T12:23:03.435Z,99462.11
2023-08-29T12:25:20.265Z,99465.65
2023-08-29T12:27:33.454Z,99468.45
2023-08-29T12:29:46.084Z,99467.42
2023-08-29T12:31:59.327Z,99461.92
2023-08-29T12:34:11.922Z,99461.20
2023-08-29T12:36:24.714Z,99458.48
2023-08-29T12:38:37.594Z,99453.09
2023-08-29T12:40:50.462Z,99454.45
2023-08-29T12:43:04.652Z,99454.84
2023-08-29T12:45:17.502Z,99454.48
2023-08-29T12:47:30.499Z,99445.42
2023-08-29T12:49:43.167Z,99437.41
2023-08-29T12:51:55.921Z,99434.79
2023-08-29T12:54:08.558Z,99435.21
2023-08-29T12:56:21.185Z,99437.23
2023-08-29T12:58:33.794Z,99437.58
2023-08-29T13:00:46.594Z,99432.36
2023-08-29T13:02:59.308Z,99430.96
2023-08-29T13:05:12.004Z,99434.59
2023-08-29T13:07:24.668Z,99437.95
2023-08-29T13:09:40.051Z,99436.33
2023-08-29T13:11:52.712Z,99427.48
2023-08-29T13:14:05.392Z,99423.73
2023-08-29T13:16:18.996Z,99423.15
2023-08-29T13:18:31.749Z,99421.20
2023-08-29T13:20:44.447Z,99420.30
2023-08-29T13:22:57.048Z,99418.48
2023-08-29T13:25:10.107Z,99423.48
2023-08-29T13:27:22.724Z,99422.82
2023-08-29T13:29:35.810Z,99424.31
2023-08-29T13:31:48.547Z,99419.71
2023-08-29T13:34:01.203Z,99417.66
2023-08-29T13:36:13.829Z,99409.40
2023-08-29T13:38:27.423Z,99405.51
2023-08-29T13:40:42.314Z,99404.30
2023-08-29T13:42:56.663Z,99401.23
2023-08-29T13:45:09.933Z,99404.31
2023-08-29T13:47:23.462Z,99407.81
2023-08-29T13:49:36.044Z,99414.99
2023-08-29T13:51:49.925Z,99423.77
2023-08-29T13:54:02.806Z,99432.79
2023-08-29T13:56:15.746Z,99435.48
2023-08-29T13:58:28.536Z,99442.64
2023-08-29T14:00:41.169Z,99454.67
2023-08-29T14:02:54.439Z,99462.52
2023-08-29T14:05:08.039Z,99470.70
2023-08-29T14:07:21.766Z,99474.86
2023-08-29T14:09:34.427Z,99474.52
2023-08-29T14:11:47.115Z,99476.77
2023-08-29T14:13:59.731Z,99475.42
2023-08-29T14:16:12.427Z,99472.03
2023-08-29T14:18:25.018Z,99471.88
2023-08-29T14:20:46.703Z,99469.94
2023-08-29T14:23:02.183Z,99471.20
2023-08-29T14:25:14.794Z,99469.65
2023-08-29T14:27:27.732Z,99469.84
2023-08-29T14:29:40.720Z,99470.27
2023-08-29T14:31:53.381Z,99468.12
2023-08-29T14:34:07.077Z,99464.63
2023-08-29T14:36:19.856Z,99463.95
2023-08-29T14:38:32.544Z,99460.32
2023-08-29T14:40:45.167Z,99459.52
2023-08-29T14:42:57.828Z,99463.14
2023-08-29T14:45:11.003Z,99461.23
2023-08-29T14:47:23.644Z,99461.39
2023-08-29T14:49:36.715Z,99454.77
2023-08-29T14:51:49.347Z,99454.13
2023-08-29T14:54:04.518Z,99457.00
2023-08-29T15:07:18.838Z,99448.89
2023-08-29T15:09:31.440Z,99450.14
2023-08-29T15:11:44.077Z,99445.54
2023-08-29T15:13:56.725Z,99441.98
2023-08-29T15:16:09.452Z,99443.12
2023-08-29T15:18:22.228Z,99442.64
2023-08-29T15:20:42.606Z,99440.77
2023-08-29T15:22:55.226Z,99441.62
2023-08-29T15:25:08.193Z,99432.52
2023-08-29T15:27:20.893Z,99429.64
2023-08-29T15:29:33.585Z,99430.13
2023-08-29T15:31:46.341Z,99431.45
2023-08-29T15:33:59.315Z,99430.09
2023-08-29T15:36:11.960Z,99435.89
2023-08-29T15:38:25.145Z,99440.59
2023-08-29T15:40:41.660Z,99433.60
2023-08-29T15:42:54.480Z,99429.60
2023-08-29T15:45:07.440Z,99426.02
2023-08-29T15:47:20.090Z,99418.45
2023-08-29T15:49:32.720Z,99417.79
2023-08-29T15:51:45.410Z,99411.92
2023-08-29T15:53:58.599Z,99406.83
2023-08-29T15:56:12.024Z,99408.17
2023-08-29T15:58:24.692Z,99404.11
2023-08-29T16:00:38.258Z,99405.33
2023-08-29T16:05:04.352Z,99408.40
2023-08-29T16:07:17.007Z,99408.34
2023-08-29T16:09:31.792Z,99403.98
2023-08-29T16:11:45.888Z,99403.40
2023-08-29T16:13:58.540Z,99405.89
2023-08-29T16:16:11.232Z,99410.09
2023-08-29T16:18:24.694Z,99414.27
2023-08-29T16:20:41.166Z,99413.80
2023-08-29T16:22:55.341Z,99415.30
2023-08-29T16:25:08.754Z,99416.06
2023-08-29T16:27:21.418Z,99421.38
2023-08-29T16:29:34.658Z,99428.69
2023-08-29T16:31:47.237Z,99433.89
2023-08-29T16:34:01.605Z,99433.13
2023-08-29T16:36:15.771Z,99428.20
2023-08-29T16:38:28.532Z,99431.68
2023-08-29T16:40:41.212Z,99437.27
2023-08-29T16:42:53.792Z,99441.29
2023-08-29T16:45:07.314Z,99443.52
2023-08-29T16:47:20.207Z,99442.13
2023-08-29T16:49:32.863Z,99439.14
2023-08-29T16:51:45.537Z,99439.14
2023-08-29T16:53:58.154Z,99446.81
2023-08-29T16:56:10.872Z,99452.98
2023-08-29T16:58:23.518Z,99458.37
2023-08-29T17:00:36.622Z,99460.89
2023-08-29T17:02:49.352Z,99454.39
2023-08-29T17:05:02.217Z,99450.46
2023-08-29T17:07:14.868Z,99449.67
2023-08-29T17:09:27.539Z,99444.70
2023-08-29T17:11:40.133Z,99439.96
2023-08-29T17:13:52.916Z,99440.98
2023-08-29T17:16:06.135Z,99448.10
2023-08-29T17:18:18.829Z,99456.60
2023-08-29T17:20:31.926Z,99456.77
2023-08-29T17:22:44.859Z,99456.42
2023-08-29T17:24:57.689Z,99454.73
2023-08-29T17:27:10.288Z,99458.34
2023-08-29T17:29:23.605Z,99466.11
2023-08-29T17:31:36.600Z,99472.38
2023-08-29T17:33:49.276Z,99477.58
2023-08-29T17:36:05.725Z,99478.55
2023-08-29T17:38:18.453Z,99471.08
2023-08-29T17:40:31.256Z,99464.91
2023-08-29T17:42:44.674Z,99457.40
2023-08-29T17:44:57.387Z,99457.59
2023-08-29T17:47:10.087Z,99457.61
2023-08-29T17:49:23.057Z,99462.52
2023-08-29T17:51:36.669Z,99464.98
2023-08-29T17:53:49.650Z,99472.10
2023-08-29T17:56:02.209Z,99477.75
2023-08-29T17:58:15.038Z,99480.13
2023-08-29T18:00:27.686Z,99484.23
2023-08-29T18:02:40.387Z,99488.54
2023-08-29T18:04:53.166Z,99481.38
2023-08-29T18:07:07.835Z,99475.32
2023-08-29T18:09:20.738Z,99475.70
2023-08-29T18:11:33.938Z,99482.79
2023-08-29T18:13:46.863Z,99486.59
2023-08-29T18:15:59.536Z,99482.22
2023-08-29T18:18:30.047Z,99477.83
2023-08-29T18:20:42.709Z,99478.05
2023-08-29T18:22:56.792Z,99481.91
2023-08-29T18:25:09.796Z,99483.77
2023-08-29T18:27:23.787Z,99487.08
2023-08-29T18:29:36.844Z,99482.94
2023-08-29T18:31:49.483Z,99480.05
2023-08-29T18:34:02.098Z,99480.98
2023-08-29T18:36:14.819Z,99481.92
2023-08-29T18:38:29.077Z,99479.40
2023-08-29T18:40:41.852Z,99481.30
2023-08-29T18:42:54.481Z,99483.81
2023-08-29T18:45:07.513Z,99490.06
2023-08-29T18:47:20.144Z,99492.91
2023-08-29T18:49:33.399Z,99494.65
2023-08-29T18:51:46.303Z,99486.84
2023-08-29T18:53:59.018Z,99486.19
2023-08-29T18:56:15.574Z,99484.02
2023-08-29T18:58:28.199Z,99482.77
2023-08-29T19:00:40.866Z,99483.09
2023-08-29T19:02:55.968Z,99483.91
2023-08-29T19:05:11.044Z,99485.23
2023-08-29T19:07:23.828Z,99485.41
2023-08-29T19:09:37.189Z,99481.23
2023-08-29T19:11:50.180Z,99480.95
2023-08-29T19:14:04.594Z,99483.42
2023-08-29T19:16:17.270Z,99484.02
2023-08-29T19:18:29.978Z,99484.63
2023-08-29T19:20:42.649Z,99484.66
2023-08-29T19:22:55.255Z,99481.77
2023-08-29T19:25:08.340Z,99477.05
2023-08-29T19:27:23.894Z,99473.20
2023-08-29T19:29:39.727Z,99471.53
2023-08-29T19:31:52.476Z,99466.55
2023-08-29T19:34:05.575Z,99462.19
2023-08-29T19:36:19.109Z,99462.02
2023-08-29T19:38:31.703Z,99455.30
2023-08-29T19:40:44.326Z,99454.84
2023-08-29T19:42:57.694Z,99447.13
2023-08-29T19:45:10.923Z,99440.25
2023-08-29T19:47:26.340Z,99432.21
2023-08-29T19:49:40.128Z,99425.13
2023-08-29T19:51:53.367Z,99423.66
2023-08-29T19:54:06.222Z,99421.98
2023-08-29T19:56:18.829Z,99422.79
2023-08-29T19:58:31.472Z,99429.92
2023-08-29T20:00:44.612Z,99423.32
2023-08-29T20:02:57.344Z,99418.83
2023-08-29T20:05:10.082Z,99410.16
2023-08-29T20:07:22.691Z,99405.12
2023-08-29T20:09:36.289Z,99399.45
2023-08-29T20:11:48.942Z,99397.05
2023-08-29T20:14:01.589Z,99389.92
2023-08-29T20:16:14.207Z,99383.42
2023-08-29T20:18:26.803Z,99387.14
2023-08-29T20:20:40.775Z,99387.39
2023-08-29T20:22:53.454Z,99386.27
2023-08-29T20:25:10.466Z,99390.34
2023-08-29T20:27:23.119Z,99391.38
2023-08-29T20:29:35.781Z,99386.58
2023-08-29T20:31:48.383Z,99383.10
2023-08-29T20:34:01.052Z,99385.11
2023-08-29T20:36:13.924Z,99387.84
2023-08-29T20:38:26.862Z,99392.64
2023-08-29T20:40:40.710Z,99392.39
2023-08-29T20:42:53.563Z,99397.17
2023-08-29T20:45:08.026Z,99406.08
2023-08-29T20:47:20.808Z,99413.23
2023-08-29T20:49:33.397Z,99418.48
2023-08-29T20:51:46.025Z,99416.69
2023-08-29T20:53:58.708Z,99420.01
2023-08-29T20:56:11.581Z,99422.63
2023-08-29T20:58:24.567Z,99426.40
2023-08-29T21:00:37.189Z,99432.05
2023-08-29T21:02:49.965Z,99436.83
2023-08-29T21:05:03.896Z,99441.32
2023-08-29T21:07:16.668Z,99447.61
2023-08-29T21:09:29.339Z,99456.95
2023-08-29T21:11:42.021Z,99463.80
2023-08-29T21:13:54.654Z,99466.53
2023-08-29T21:16:07.296Z,99469.20
2023-08-29T21:18:20.150Z,99464.13
2023-08-29T21:20:35.446Z,99464.76
2023-08-29T21:22:48.021Z,99469.40
2023-08-29T21:25:00.791Z,99472.33
2023-08-29T21:27:13.638Z,99471.45
2023-08-29T21:29:26.374Z,99467.16
2023-08-29T21:31:39.490Z,99466.31
2023-08-29T21:33:52.168Z,99464.06
2023-08-29T21:36:04.927Z,99464.83
2023-08-29T21:38:18.178Z,99463.09
2023-08-29T21:40:30.975Z,99463.30
2023-08-29T21:42:45.251Z,99464.88
2023-08-29T21:44:57.875Z,99464.61
2023-08-29T21:47:10.499Z,99461.67
2023-08-29T21:49:23.238Z,99461.05
2023-08-29T21:51:35.823Z,99459.98
2023-08-29T21:53:48.527Z,99460.80
2023-08-29T21:56:01.119Z,99462.25
2023-08-29T21:58:22.803Z,99465.13
2023-08-29T22:00:35.661Z,99465.70
2023-08-29T22:02:48.311Z,99468.86
2023-08-29T22:05:01.065Z,99470.88
2023-08-29T22:07:13.951Z,99470.41
2023-08-29T22:09:26.566Z,99462.95
2023-08-29T22:11:39.186Z,99457.91
2023-08-29T22:13:51.765Z,99456.09
2023-08-29T22:16:04.950Z,99458.55
2023-08-29T22:18:17.765Z,99459.38
2023-08-29T22:20:30.409Z,99447.50
2023-08-29T22:22:43.055Z,99438.41
2023-08-29T22:24:55.655Z,99444.16
2023-08-29T22:27:09.355Z,99442.77
2023-08-29T22:29:22.122Z,99437.12
2023-08-29T22:31:34.748Z,99433.96
2023-08-29T22:33:47.378Z,99432.58
2023-08-29T22:35:59.997Z,99434.20
2023-08-29T22:38:12.798Z,99437.09
2023-08-29T22:40:25.733Z,99437.55
2023-08-29T22:42:38.459Z,99439.52
2023-08-29T22:44:51.564Z,99445.45
2023-08-29T22:47:04.441Z,99448.06
2023-08-29T22:49:17.081Z,99449.18
2023-08-29T22:51:29.712Z,99442.45
2023-08-29T22:53:42.345Z,99440.21
2023-08-29T22:55:54.962Z,99434.33
2023-08-29T22:58:07.860Z,99428.17
2023-08-29T23:00:22.018Z,99432.87
2023-08-29T23:02:34.688Z,99437.30
2023-08-29T23:04:47.401Z,99435.35
2023-08-29T23:07:18.273Z,99433.73
2023-08-29T23:09:33.055Z,99440.40
2023-08-29T23:11:45.815Z,99436.44
2023-08-29T23:13:58.464Z,99431.64
2023-08-29T23:16:11.661Z,99429.98
2023-08-29T23:18:24.721Z,99424.64
2023-08-29T23:20:37.360Z,99419.77
2023-08-29T23:22:50.655Z,99413.95
2023-08-29T23:25:05.622Z,99419.63
2023-08-29T23:27:18.271Z,99426.05
2023-08-29T23:29:33.899Z,99429.20
2023-08-29T23:31:47.337Z,99429.89
2023-08-29T23:34:00.202Z,99428.79
2023-08-29T23:36:12.909Z,99427.47
2023-08-29T23:38:25.566Z,99428.77
2023-08-29T23:40:38.357Z,99420.34
2023-08-29T23:42:50.994Z,99419.49
2023-08-29T23:45:06.701Z,99423.75
2023-08-29T23:47:19.317Z,99427.39
2023-08-29T23:49:31.919Z,99423.73
2023-08-29T23:51:44.500Z,99417.66
2023-08-29T23:53:57.109Z,99410.62
2023-08-29T23:56:09.725Z,99408.45
2023-08-29T23:58:22.584Z,99407.30
